Portada
METAR-TAF:

METAR-TAF

Aeropuertos :

El Hierro, España

Aeropuerto de El Hierro

latitud: 27-49N, longitud: 017-53W, altitud: 32 m

Observación

El informe se hizo hace 38 minutos, a las 22:00 UTC
Viento 11 kt del norte
Temperatura 21°C
Humedad 73%
Presión 1022 hPa
Visibilidad 10 km o más
sin nubes por debajo de 1500 m y sin presencia de cumulonimbus.

METAR: GCHI 162200Z AUTO 35011KT CAVOK 21/16 Q1022

Hora: 23:38 (22:38 UTC)

Pronóstico

El informe se hizo hace 2 horas y 38 minutos, a las 20:00 UTC
Pronóstico válido del 16 a las 21 UTC al 17 a las 21 UTC
Viento 9 kt del noroeste
Visibilidad 10 km o más
Escasas nubes a una altura de 3000 ft

TAF: GCHI 162000Z 1621/1721 32009KT 9999 FEW030 TX24/1714Z TN19/1706Z

Observaciones y pronósticos meteorológicos de más de 4000 aeropuertos (mensajes METAR y TAF).

Los puntos amarillos y rojos representan las estaciones disponibles.

Ponga el ratón en el punto deseado para ver el nombre de la estación.

Haga clic para ver las observaciones y los pronósticos meteorológicos.

Para cambiar el mapa : haga clic en los botones verdes con una cruz de color negro para hacer un zoom, en el botón verde con un guión para alejar o en las flechas verdes para mapas adyacentes.


METAR-TAF: